sensor_id;sensor_type;location;lat;lon;timestamp;P1;durP1;ratioP1;P2;durP2;ratioP2
56429;SDS011;42332;52.136;20.666;2023-04-24T00:00:18;15.57;;;8.05;;
56429;SDS011;42332;52.136;20.666;2023-04-24T00:02:43;17.42;;;6.95;;
56429;SDS011;42332;52.136;20.666;2023-04-24T00:05:12;15.52;;;7.00;;
56429;SDS011;42332;52.136;20.666;2023-04-24T00:07:38;19.17;;;8.65;;
56429;SDS011;42332;52.136;20.666;2023-04-24T00:10:04;14.35;;;7.25;;
56429;SDS011;42332;52.136;20.666;2023-04-24T00:12:30;15.35;;;7.53;;
56429;SDS011;42332;52.136;20.666;2023-04-24T00:14:55;14.82;;;7.60;;
56429;SDS011;42332;52.136;20.666;2023-04-24T00:17:21;14.93;;;7.43;;
56429;SDS011;42332;52.136;20.666;2023-04-24T00:19:46;15.88;;;7.78;;
56429;SDS011;42332;52.136;20.666;2023-04-24T00:22:12;19.88;;;7.72;;
56429;SDS011;42332;52.136;20.666;2023-04-24T00:24:40;20.80;;;9.77;;
56429;SDS011;42332;52.136;20.666;2023-04-24T00:27:06;19.33;;;7.53;;
56429;SDS011;42332;52.136;20.666;2023-04-24T00:29:31;16.05;;;7.20;;
56429;SDS011;42332;52.136;20.666;2023-04-24T00:31:56;14.60;;;7.30;;
56429;SDS011;42332;52.136;20.666;2023-04-24T00:34:22;20.08;;;8.00;;
56429;SDS011;42332;52.136;20.666;2023-04-24T00:36:47;24.67;;;8.07;;
56429;SDS011;42332;52.136;20.666;2023-04-24T00:39:17;23.92;;;7.90;;
56429;SDS011;42332;52.136;20.666;2023-04-24T00:41:42;19.60;;;7.82;;
56429;SDS011;42332;52.136;20.666;2023-04-24T00:44:08;15.48;;;7.93;;
56429;SDS011;42332;52.136;20.666;2023-04-24T00:46:33;17.15;;;8.55;;
56429;SDS011;42332;52.136;20.666;2023-04-24T00:48:59;17.17;;;8.30;;
56429;SDS011;42332;52.136;20.666;2023-04-24T00:51:24;16.70;;;8.50;;
56429;SDS011;42332;52.136;20.666;2023-04-24T00:53:50;20.52;;;8.80;;
56429;SDS011;42332;52.136;20.666;2023-04-24T00:56:16;17.15;;;8.90;;
56429;SDS011;42332;52.136;20.666;2023-04-24T00:58:43;14.73;;;7.78;;
56429;SDS011;42332;52.136;20.666;2023-04-24T01:01:09;24.05;;;9.50;;
56429;SDS011;42332;52.136;20.666;2023-04-24T01:03:34;19.92;;;9.02;;
56429;SDS011;42332;52.136;20.666;2023-04-24T01:06:02;15.52;;;8.35;;
56429;SDS011;42332;52.136;20.666;2023-04-24T01:08:28;17.67;;;8.57;;
56429;SDS011;42332;52.136;20.666;2023-04-24T01:10:53;22.85;;;9.02;;
56429;SDS011;42332;52.136;20.666;2023-04-24T01:13:19;16.20;;;8.60;;
56429;SDS011;42332;52.136;20.666;2023-04-24T01:15:45;20.17;;;9.05;;
56429;SDS011;42332;52.136;20.666;2023-04-24T01:18:11;25.13;;;9.98;;
56429;SDS011;42332;52.136;20.666;2023-04-24T01:20:39;26.23;;;9.98;;
56429;SDS011;42332;52.136;20.666;2023-04-24T01:23:06;18.25;;;8.95;;
56429;SDS011;42332;52.136;20.666;2023-04-24T01:25:32;18.75;;;8.55;;
56429;SDS011;42332;52.136;20.666;2023-04-24T01:27:58;20.50;;;8.90;;
56429;SDS011;42332;52.136;20.666;2023-04-24T01:30:24;20.38;;;8.50;;
56429;SDS011;42332;52.136;20.666;2023-04-24T01:32:49;20.33;;;8.70;;
56429;SDS011;42332;52.136;20.666;2023-04-24T01:35:15;18.90;;;8.30;;
56429;SDS011;42332;52.136;20.666;2023-04-24T01:37:40;19.25;;;9.40;;
56429;SDS011;42332;52.136;20.666;2023-04-24T01:40:06;16.55;;;7.97;;
56429;SDS011;42332;52.136;20.666;2023-04-24T01:42:32;13.73;;;7.70;;
56429;SDS011;42332;52.136;20.666;2023-04-24T01:44:57;19.60;;;8.18;;
56429;SDS011;42332;52.136;20.666;2023-04-24T01:47:23;18.80;;;9.15;;
56429;SDS011;42332;52.136;20.666;2023-04-24T01:49:49;16.58;;;8.48;;
56429;SDS011;42332;52.136;20.666;2023-04-24T01:52:15;15.35;;;8.25;;
56429;SDS011;42332;52.136;20.666;2023-04-24T01:54:41;15.93;;;8.38;;
56429;SDS011;42332;52.136;20.666;2023-04-24T01:57:07;18.27;;;8.32;;
56429;SDS011;42332;52.136;20.666;2023-04-24T01:59:32;16.60;;;8.20;;
56429;SDS011;42332;52.136;20.666;2023-04-24T02:01:58;15.38;;;7.82;;
56429;SDS011;42332;52.136;20.666;2023-04-24T02:04:23;20.88;;;8.52;;
56429;SDS011;42332;52.136;20.666;2023-04-24T02:06:49;19.67;;;8.27;;
56429;SDS011;42332;52.136;20.666;2023-04-24T02:09:14;19.00;;;9.10;;
56429;SDS011;42332;52.136;20.666;2023-04-24T02:11:39;13.93;;;8.00;;
56429;SDS011;42332;52.136;20.666;2023-04-24T02:14:05;22.48;;;8.95;;
56429;SDS011;42332;52.136;20.666;2023-04-24T02:16:30;16.85;;;8.75;;
56429;SDS011;42332;52.136;20.666;2023-04-24T02:19:00;18.27;;;8.70;;
56429;SDS011;42332;52.136;20.666;2023-04-24T02:21:26;16.48;;;9.20;;
56429;SDS011;42332;52.136;20.666;2023-04-24T02:23:52;16.17;;;8.43;;
56429;SDS011;42332;52.136;20.666;2023-04-24T02:26:18;18.08;;;9.75;;
56429;SDS011;42332;52.136;20.666;2023-04-24T02:28:43;14.23;;;8.73;;
56429;SDS011;42332;52.136;20.666;2023-04-24T02:31:09;29.55;;;9.70;;
56429;SDS011;42332;52.136;20.666;2023-04-24T02:33:34;20.35;;;8.35;;
56429;SDS011;42332;52.136;20.666;2023-04-24T02:36:00;22.67;;;9.60;;
56429;SDS011;42332;52.136;20.666;2023-04-24T02:38:26;18.50;;;8.50;;
56429;SDS011;42332;52.136;20.666;2023-04-24T02:40:52;19.33;;;10.05;;
56429;SDS011;42332;52.136;20.666;2023-04-24T02:43:17;18.45;;;8.80;;
56429;SDS011;42332;52.136;20.666;2023-04-24T02:45:43;19.83;;;9.35;;
56429;SDS011;42332;52.136;20.666;2023-04-24T02:48:08;20.95;;;10.02;;
56429;SDS011;42332;52.136;20.666;2023-04-24T02:50:34;20.33;;;9.57;;
56429;SDS011;42332;52.136;20.666;2023-04-24T02:52:59;17.63;;;9.43;;
56429;SDS011;42332;52.136;20.666;2023-04-24T02:55:24;20.88;;;10.52;;
56429;SDS011;42332;52.136;20.666;2023-04-24T02:57:50;21.88;;;10.32;;
56429;SDS011;42332;52.136;20.666;2023-04-24T03:00:15;18.48;;;9.43;;
56429;SDS011;42332;52.136;20.666;2023-04-24T03:02:41;18.02;;;9.75;;
56429;SDS011;42332;52.136;20.666;2023-04-24T03:05:07;19.00;;;9.60;;
56429;SDS011;42332;52.136;20.666;2023-04-24T03:07:32;18.17;;;9.23;;
56429;SDS011;42332;52.136;20.666;2023-04-24T03:09:58;18.38;;;9.05;;
56429;SDS011;42332;52.136;20.666;2023-04-24T03:12:24;20.90;;;9.60;;
56429;SDS011;42332;52.136;20.666;2023-04-24T03:14:49;19.45;;;9.70;;
56429;SDS011;42332;52.136;20.666;2023-04-24T03:17:15;26.73;;;10.30;;
56429;SDS011;42332;52.136;20.666;2023-04-24T03:19:40;19.85;;;10.35;;
56429;SDS011;42332;52.136;20.666;2023-04-24T03:22:06;23.27;;;9.45;;
56429;SDS011;42332;52.136;20.666;2023-04-24T03:24:31;21.77;;;10.13;;
56429;SDS011;42332;52.136;20.666;2023-04-24T03:26:57;18.10;;;9.88;;
56429;SDS011;42332;52.136;20.666;2023-04-24T03:29:22;19.45;;;10.23;;
56429;SDS011;42332;52.136;20.666;2023-04-24T03:31:48;19.05;;;10.50;;
56429;SDS011;42332;52.136;20.666;2023-04-24T03:34:13;20.50;;;9.25;;
56429;SDS011;42332;52.136;20.666;2023-04-24T03:36:39;24.25;;;9.45;;
56429;SDS011;42332;52.136;20.666;2023-04-24T03:39:04;19.15;;;9.27;;
56429;SDS011;42332;52.136;20.666;2023-04-24T03:41:30;21.83;;;9.95;;
56429;SDS011;42332;52.136;20.666;2023-04-24T03:43:55;20.23;;;9.75;;
56429;SDS011;42332;52.136;20.666;2023-04-24T03:46:21;17.40;;;9.27;;
56429;SDS011;42332;52.136;20.666;2023-04-24T03:48:46;19.02;;;9.27;;
56429;SDS011;42332;52.136;20.666;2023-04-24T03:51:12;18.27;;;8.80;;
56429;SDS011;42332;52.136;20.666;2023-04-24T03:53:37;25.67;;;9.98;;
56429;SDS011;42332;52.136;20.666;2023-04-24T03:56:03;19.98;;;9.63;;
56429;SDS011;42332;52.136;20.666;2023-04-24T03:58:28;18.23;;;9.57;;
56429;SDS011;42332;52.136;20.666;2023-04-24T04:00:53;22.42;;;10.50;;
56429;SDS011;42332;52.136;20.666;2023-04-24T04:03:19;23.17;;;10.25;;
56429;SDS011;42332;52.136;20.666;2023-04-24T04:05:44;26.30;;;10.73;;
56429;SDS011;42332;52.136;20.666;2023-04-24T04:08:10;21.45;;;11.07;;
56429;SDS011;42332;52.136;20.666;2023-04-24T04:10:35;23.38;;;10.80;;
56429;SDS011;42332;52.136;20.666;2023-04-24T04:13:00;20.10;;;9.98;;
56429;SDS011;42332;52.136;20.666;2023-04-24T04:15:26;30.42;;;9.63;;
56429;SDS011;42332;52.136;20.666;2023-04-24T04:17:51;19.45;;;9.38;;
56429;SDS011;42332;52.136;20.666;2023-04-24T04:20:17;18.40;;;9.75;;
56429;SDS011;42332;52.136;20.666;2023-04-24T04:22:42;21.80;;;8.70;;
56429;SDS011;42332;52.136;20.666;2023-04-24T04:25:07;19.92;;;9.52;;
56429;SDS011;42332;52.136;20.666;2023-04-24T04:27:33;18.50;;;9.38;;
56429;SDS011;42332;52.136;20.666;2023-04-24T04:29:59;18.10;;;9.43;;
56429;SDS011;42332;52.136;20.666;2023-04-24T04:32:30;18.92;;;9.50;;
56429;SDS011;42332;52.136;20.666;2023-04-24T04:34:58;16.83;;;9.23;;
56429;SDS011;42332;52.136;20.666;2023-04-24T04:37:31;16.98;;;8.20;;
56429;SDS011;42332;52.136;20.666;2023-04-24T04:39:59;23.58;;;8.73;;
56429;SDS011;42332;52.136;20.666;2023-04-24T04:42:25;16.92;;;8.20;;
56429;SDS011;42332;52.136;20.666;2023-04-24T04:44:52;17.63;;;9.20;;
56429;SDS011;42332;52.136;20.666;2023-04-24T04:47:17;21.23;;;9.45;;
56429;SDS011;42332;52.136;20.666;2023-04-24T04:49:43;19.35;;;7.45;;
56429;SDS011;42332;52.136;20.666;2023-04-24T04:52:09;19.05;;;9.10;;
56429;SDS011;42332;52.136;20.666;2023-04-24T04:54:34;18.35;;;8.75;;
56429;SDS011;42332;52.136;20.666;2023-04-24T04:57:00;21.55;;;9.10;;
56429;SDS011;42332;52.136;20.666;2023-04-24T04:59:25;23.67;;;9.63;;
56429;SDS011;42332;52.136;20.666;2023-04-24T05:01:51;19.65;;;9.30;;
56429;SDS011;42332;52.136;20.666;2023-04-24T05:04:17;22.80;;;9.13;;
56429;SDS011;42332;52.136;20.666;2023-04-24T05:06:42;19.88;;;9.02;;
56429;SDS011;42332;52.136;20.666;2023-04-24T05:09:07;24.73;;;9.55;;
56429;SDS011;42332;52.136;20.666;2023-04-24T05:11:33;21.88;;;9.48;;
56429;SDS011;42332;52.136;20.666;2023-04-24T05:13:58;16.38;;;8.55;;
56429;SDS011;42332;52.136;20.666;2023-04-24T05:16:23;18.92;;;8.80;;
56429;SDS011;42332;52.136;20.666;2023-04-24T05:18:49;19.73;;;8.93;;
56429;SDS011;42332;52.136;20.666;2023-04-24T05:21:15;25.35;;;9.25;;
56429;SDS011;42332;52.136;20.666;2023-04-24T05:23:40;20.60;;;9.35;;
56429;SDS011;42332;52.136;20.666;2023-04-24T05:26:05;21.85;;;8.45;;
56429;SDS011;42332;52.136;20.666;2023-04-24T05:28:31;17.77;;;9.13;;
56429;SDS011;42332;52.136;20.666;2023-04-24T05:30:56;20.83;;;8.27;;
56429;SDS011;42332;52.136;20.666;2023-04-24T05:33:22;29.67;;;9.38;;
56429;SDS011;42332;52.136;20.666;2023-04-24T05:35:47;16.17;;;8.77;;
56429;SDS011;42332;52.136;20.666;2023-04-24T05:38:13;19.65;;;9.05;;
56429;SDS011;42332;52.136;20.666;2023-04-24T05:40:39;15.57;;;7.25;;
56429;SDS011;42332;52.136;20.666;2023-04-24T05:43:04;16.85;;;8.02;;
56429;SDS011;42332;52.136;20.666;2023-04-24T05:45:30;19.45;;;7.75;;
56429;SDS011;42332;52.136;20.666;2023-04-24T05:47:55;19.73;;;7.80;;
56429;SDS011;42332;52.136;20.666;2023-04-24T05:50:21;13.77;;;7.25;;
56429;SDS011;42332;52.136;20.666;2023-04-24T05:52:46;20.40;;;7.75;;
56429;SDS011;42332;52.136;20.666;2023-04-24T05:55:11;23.52;;;7.95;;
56429;SDS011;42332;52.136;20.666;2023-04-24T05:57:37;15.55;;;7.68;;
56429;SDS011;42332;52.136;20.666;2023-04-24T06:00:03;17.42;;;7.47;;
56429;SDS011;42332;52.136;20.666;2023-04-24T06:02:29;23.42;;;7.05;;
56429;SDS011;42332;52.136;20.666;2023-04-24T06:04:57;14.77;;;7.15;;
56429;SDS011;42332;52.136;20.666;2023-04-24T06:07:24;22.88;;;6.38;;
56429;SDS011;42332;52.136;20.666;2023-04-24T06:09:51;16.27;;;6.45;;
56429;SDS011;42332;52.136;20.666;2023-04-24T06:12:17;13.30;;;6.63;;
56429;SDS011;42332;52.136;20.666;2023-04-24T06:14:43;19.98;;;7.53;;
56429;SDS011;42332;52.136;20.666;2023-04-24T06:17:08;22.05;;;8.10;;
56429;SDS011;42332;52.136;20.666;2023-04-24T06:19:33;13.60;;;7.18;;
56429;SDS011;42332;52.136;20.666;2023-04-24T06:21:59;26.70;;;7.88;;
56429;SDS011;42332;52.136;20.666;2023-04-24T06:24:27;24.92;;;7.50;;
56429;SDS011;42332;52.136;20.666;2023-04-24T06:26:53;12.82;;;7.13;;
56429;SDS011;42332;52.136;20.666;2023-04-24T06:29:19;12.80;;;7.40;;
56429;SDS011;42332;52.136;20.666;2023-04-24T06:31:44;25.17;;;7.57;;
56429;SDS011;42332;52.136;20.666;2023-04-24T06:34:10;17.63;;;7.78;;
56429;SDS011;42332;52.136;20.666;2023-04-24T06:36:35;17.23;;;7.28;;
56429;SDS011;42332;52.136;20.666;2023-04-24T06:39:00;19.17;;;8.05;;
56429;SDS011;42332;52.136;20.666;2023-04-24T06:41:26;18.13;;;6.95;;
56429;SDS011;42332;52.136;20.666;2023-04-24T06:43:51;18.40;;;7.40;;
56429;SDS011;42332;52.136;20.666;2023-04-24T06:46:17;14.50;;;6.90;;
56429;SDS011;42332;52.136;20.666;2023-04-24T06:48:43;20.70;;;6.95;;
56429;SDS011;42332;52.136;20.666;2023-04-24T06:51:08;13.20;;;8.20;;
56429;SDS011;42332;52.136;20.666;2023-04-24T06:53:34;19.98;;;7.32;;
56429;SDS011;42332;52.136;20.666;2023-04-24T06:56:00;14.02;;;5.90;;
56429;SDS011;42332;52.136;20.666;2023-04-24T06:58:25;13.35;;;6.22;;
56429;SDS011;42332;52.136;20.666;2023-04-24T07:00:51;19.35;;;5.78;;
56429;SDS011;42332;52.136;20.666;2023-04-24T07:03:16;13.57;;;5.93;;
56429;SDS011;42332;52.136;20.666;2023-04-24T07:05:41;18.70;;;6.72;;
56429;SDS011;42332;52.136;20.666;2023-04-24T07:08:07;10.98;;;5.70;;
56429;SDS011;42332;52.136;20.666;2023-04-24T07:10:33;22.92;;;7.13;;
56429;SDS011;42332;52.136;20.666;2023-04-24T07:13:00;12.27;;;6.30;;
56429;SDS011;42332;52.136;20.666;2023-04-24T07:15:26;21.63;;;6.93;;
56429;SDS011;42332;52.136;20.666;2023-04-24T07:17:52;17.63;;;5.97;;
56429;SDS011;42332;52.136;20.666;2023-04-24T07:20:17;16.77;;;6.22;;
56429;SDS011;42332;52.136;20.666;2023-04-24T07:22:42;15.27;;;6.32;;
56429;SDS011;42332;52.136;20.666;2023-04-24T07:25:08;12.20;;;5.97;;
56429;SDS011;42332;52.136;20.666;2023-04-24T07:27:34;17.02;;;6.60;;
56429;SDS011;42332;52.136;20.666;2023-04-24T07:30:00;14.00;;;6.35;;
56429;SDS011;42332;52.136;20.666;2023-04-24T07:32:26;17.80;;;6.82;;
56429;SDS011;42332;52.136;20.666;2023-04-24T07:34:51;19.50;;;7.20;;
56429;SDS011;42332;52.136;20.666;2023-04-24T07:37:17;17.73;;;7.55;;
56429;SDS011;42332;52.136;20.666;2023-04-24T07:39:42;20.42;;;8.00;;
56429;SDS011;42332;52.136;20.666;2023-04-24T07:42:08;20.00;;;7.68;;
56429;SDS011;42332;52.136;20.666;2023-04-24T07:44:33;20.67;;;7.18;;
56429;SDS011;42332;52.136;20.666;2023-04-24T07:46:59;18.05;;;7.10;;
56429;SDS011;42332;52.136;20.666;2023-04-24T07:49:24;17.85;;;8.02;;
56429;SDS011;42332;52.136;20.666;2023-04-24T07:51:50;18.17;;;7.57;;
56429;SDS011;42332;52.136;20.666;2023-04-24T07:54:15;15.98;;;7.38;;
56429;SDS011;42332;52.136;20.666;2023-04-24T07:56:41;16.33;;;7.20;;
56429;SDS011;42332;52.136;20.666;2023-04-24T07:59:07;16.38;;;7.57;;
56429;SDS011;42332;52.136;20.666;2023-04-24T08:01:34;29.90;;;7.75;;
56429;SDS011;42332;52.136;20.666;2023-04-24T08:04:00;19.80;;;7.72;;
56429;SDS011;42332;52.136;20.666;2023-04-24T08:06:25;18.65;;;7.93;;
56429;SDS011;42332;52.136;20.666;2023-04-24T08:08:55;16.73;;;7.20;;
56429;SDS011;42332;52.136;20.666;2023-04-24T08:11:24;15.35;;;7.53;;
56429;SDS011;42332;52.136;20.666;2023-04-24T08:13:49;18.00;;;7.68;;
56429;SDS011;42332;52.136;20.666;2023-04-24T08:16:15;21.23;;;7.32;;
56429;SDS011;42332;52.136;20.666;2023-04-24T08:18:40;13.27;;;7.28;;
56429;SDS011;42332;52.136;20.666;2023-04-24T08:21:06;16.10;;;7.40;;
56429;SDS011;42332;52.136;20.666;2023-04-24T08:23:31;14.43;;;7.72;;
56429;SDS011;42332;52.136;20.666;2023-04-24T08:25:56;15.52;;;6.82;;
56429;SDS011;42332;52.136;20.666;2023-04-24T08:28:22;14.70;;;7.15;;
56429;SDS011;42332;52.136;20.666;2023-04-24T08:30:48;22.42;;;7.63;;
56429;SDS011;42332;52.136;20.666;2023-04-24T08:33:13;22.83;;;7.38;;
56429;SDS011;42332;52.136;20.666;2023-04-24T08:35:39;23.85;;;7.53;;
56429;SDS011;42332;52.136;20.666;2023-04-24T08:38:05;16.05;;;6.32;;
56429;SDS011;42332;52.136;20.666;2023-04-24T08:40:30;17.00;;;7.68;;
56429;SDS011;42332;52.136;20.666;2023-04-24T08:42:59;15.15;;;6.90;;
56429;SDS011;42332;52.136;20.666;2023-04-24T08:45:25;13.27;;;6.35;;
56429;SDS011;42332;52.136;20.666;2023-04-24T08:47:51;15.32;;;6.47;;
56429;SDS011;42332;52.136;20.666;2023-04-24T08:50:18;14.32;;;6.65;;
56429;SDS011;42332;52.136;20.666;2023-04-24T08:52:44;13.38;;;5.80;;
56429;SDS011;42332;52.136;20.666;2023-04-24T08:55:09;14.20;;;6.07;;
56429;SDS011;42332;52.136;20.666;2023-04-24T08:57:34;10.65;;;4.82;;
56429;SDS011;42332;52.136;20.666;2023-04-24T09:00:03;9.27;;;4.95;;
56429;SDS011;42332;52.136;20.666;2023-04-24T09:02:29;9.52;;;5.20;;
56429;SDS011;42332;52.136;20.666;2023-04-24T09:04:56;14.23;;;5.50;;
56429;SDS011;42332;52.136;20.666;2023-04-24T09:07:22;14.23;;;5.03;;
56429;SDS011;42332;52.136;20.666;2023-04-24T09:09:50;11.50;;;4.70;;
56429;SDS011;42332;52.136;20.666;2023-04-24T09:12:17;12.07;;;5.10;;
56429;SDS011;42332;52.136;20.666;2023-04-24T09:14:43;10.75;;;5.38;;
56429;SDS011;42332;52.136;20.666;2023-04-24T09:17:10;18.73;;;5.30;;
56429;SDS011;42332;52.136;20.666;2023-04-24T09:19:38;9.88;;;5.00;;
56429;SDS011;42332;52.136;20.666;2023-04-24T09:22:05;10.82;;;5.10;;
56429;SDS011;42332;52.136;20.666;2023-04-24T09:24:31;8.88;;;4.93;;
56429;SDS011;42332;52.136;20.666;2023-04-24T09:26:57;14.77;;;6.53;;
56429;SDS011;42332;52.136;20.666;2023-04-24T09:29:29;14.55;;;6.60;;
56429;SDS011;42332;52.136;20.666;2023-04-24T09:31:55;14.88;;;6.50;;
56429;SDS011;42332;52.136;20.666;2023-04-24T09:34:25;13.55;;;6.28;;
56429;SDS011;42332;52.136;20.666;2023-04-24T09:36:51;11.10;;;6.15;;
56429;SDS011;42332;52.136;20.666;2023-04-24T09:39:17;11.32;;;5.93;;
56429;SDS011;42332;52.136;20.666;2023-04-24T09:46:49;12.73;;;5.18;;
56429;SDS011;42332;52.136;20.666;2023-04-24T09:49:16;16.98;;;5.88;;
56429;SDS011;42332;52.136;20.666;2023-04-24T09:51:45;10.75;;;5.97;;
56429;SDS011;42332;52.136;20.666;2023-04-24T09:54:13;15.40;;;6.18;;
56429;SDS011;42332;52.136;20.666;2023-04-24T09:56:43;12.18;;;6.25;;
56429;SDS011;42332;52.136;20.666;2023-04-24T09:59:13;11.27;;;5.65;;
56429;SDS011;42332;52.136;20.666;2023-04-24T10:01:39;13.23;;;6.60;;
56429;SDS011;42332;52.136;20.666;2023-04-24T10:04:14;15.63;;;6.13;;
56429;SDS011;42332;52.136;20.666;2023-04-24T10:06:41;12.32;;;5.97;;
56429;SDS011;42332;52.136;20.666;2023-04-24T10:09:07;14.68;;;6.38;;
56429;SDS011;42332;52.136;20.666;2023-04-24T10:11:33;16.27;;;5.85;;
56429;SDS011;42332;52.136;20.666;2023-04-24T10:13:59;12.75;;;6.30;;
56429;SDS011;42332;52.136;20.666;2023-04-24T10:16:25;16.35;;;5.63;;
56429;SDS011;42332;52.136;20.666;2023-04-24T10:18:52;11.55;;;5.85;;
56429;SDS011;42332;52.136;20.666;2023-04-24T10:21:17;9.15;;;5.45;;
56429;SDS011;42332;52.136;20.666;2023-04-24T10:23:42;12.00;;;5.45;;
56429;SDS011;42332;52.136;20.666;2023-04-24T10:26:09;9.95;;;5.38;;
56429;SDS011;42332;52.136;20.666;2023-04-24T10:28:35;10.65;;;5.32;;
56429;SDS011;42332;52.136;20.666;2023-04-24T10:31:01;10.05;;;5.15;;
56429;SDS011;42332;52.136;20.666;2023-04-24T10:33:27;15.10;;;5.97;;
56429;SDS011;42332;52.136;20.666;2023-04-24T10:35:53;10.63;;;4.78;;
56429;SDS011;42332;52.136;20.666;2023-04-24T10:38:21;14.93;;;4.20;;
56429;SDS011;42332;52.136;20.666;2023-04-24T10:40:51;14.00;;;4.53;;
56429;SDS011;42332;52.136;20.666;2023-04-24T10:43:23;15.82;;;4.50;;
56429;SDS011;42332;52.136;20.666;2023-04-24T10:46:01;13.15;;;4.50;;
56429;SDS011;42332;52.136;20.666;2023-04-24T10:48:28;9.35;;;4.80;;
56429;SDS011;42332;52.136;20.666;2023-04-24T10:50:53;8.30;;;4.40;;
56429;SDS011;42332;52.136;20.666;2023-04-24T10:53:20;12.07;;;4.53;;
56429;SDS011;42332;52.136;20.666;2023-04-24T10:55:49;12.10;;;5.35;;
56429;SDS011;42332;52.136;20.666;2023-04-24T10:58:15;9.77;;;5.22;;
56429;SDS011;42332;52.136;20.666;2023-04-24T11:00:42;8.30;;;4.75;;
56429;SDS011;42332;52.136;20.666;2023-04-24T11:05:57;11.27;;;5.70;;
56429;SDS011;42332;52.136;20.666;2023-04-24T11:10:55;13.80;;;5.60;;
56429;SDS011;42332;52.136;20.666;2023-04-24T11:13:23;16.10;;;5.15;;
56429;SDS011;42332;52.136;20.666;2023-04-24T11:18:40;12.27;;;4.30;;
56429;SDS011;42332;52.136;20.666;2023-04-24T11:21:11;15.10;;;4.70;;
56429;SDS011;42332;52.136;20.666;2023-04-24T11:23:37;9.30;;;4.28;;
56429;SDS011;42332;52.136;20.666;2023-04-24T11:26:09;13.50;;;5.03;;
56429;SDS011;42332;52.136;20.666;2023-04-24T11:28:35;8.75;;;4.90;;
56429;SDS011;42332;52.136;20.666;2023-04-24T11:31:33;10.02;;;4.60;;
56429;SDS011;42332;52.136;20.666;2023-04-24T11:34:09;17.52;;;4.97;;
56429;SDS011;42332;52.136;20.666;2023-04-24T11:36:36;9.18;;;4.07;;
56429;SDS011;42332;52.136;20.666;2023-04-24T11:39:02;8.20;;;3.75;;
56429;SDS011;42332;52.136;20.666;2023-04-24T11:41:28;9.60;;;4.13;;
56429;SDS011;42332;52.136;20.666;2023-04-24T11:43:54;8.27;;;3.85;;
56429;SDS011;42332;52.136;20.666;2023-04-24T11:46:21;8.07;;;4.00;;
56429;SDS011;42332;52.136;20.666;2023-04-24T11:48:46;7.72;;;4.05;;
56429;SDS011;42332;52.136;20.666;2023-04-24T11:51:12;10.20;;;3.65;;
56429;SDS011;42332;52.136;20.666;2023-04-24T11:53:38;22.77;;;4.43;;
56429;SDS011;42332;52.136;20.666;2023-04-24T11:56:04;9.40;;;4.15;;
56429;SDS011;42332;52.136;20.666;2023-04-24T11:58:34;9.50;;;4.00;;
56429;SDS011;42332;52.136;20.666;2023-04-24T12:01:09;11.93;;;4.70;;
56429;SDS011;42332;52.136;20.666;2023-04-24T12:03:34;9.07;;;4.40;;
56429;SDS011;42332;52.136;20.666;2023-04-24T12:06:06;11.95;;;4.80;;
56429;SDS011;42332;52.136;20.666;2023-04-24T12:08:32;10.57;;;4.72;;
56429;SDS011;42332;52.136;20.666;2023-04-24T12:10:59;11.30;;;4.80;;
56429;SDS011;42332;52.136;20.666;2023-04-24T12:13:25;11.23;;;4.75;;
56429;SDS011;42332;52.136;20.666;2023-04-24T12:15:51;11.30;;;4.15;;
56429;SDS011;42332;52.136;20.666;2023-04-24T12:18:16;10.35;;;4.70;;
56429;SDS011;42332;52.136;20.666;2023-04-24T12:20:42;8.88;;;4.20;;
56429;SDS011;42332;52.136;20.666;2023-04-24T12:23:07;11.82;;;3.67;;
56429;SDS011;42332;52.136;20.666;2023-04-24T12:25:33;10.82;;;4.47;;
56429;SDS011;42332;52.136;20.666;2023-04-24T12:30:30;7.40;;;4.05;;
56429;SDS011;42332;52.136;20.666;2023-04-24T12:32:57;8.90;;;4.22;;
56429;SDS011;42332;52.136;20.666;2023-04-24T12:35:24;9.02;;;5.15;;
56429;SDS011;42332;52.136;20.666;2023-04-24T12:37:50;75.80;;;7.20;;
56429;SDS011;42332;52.136;20.666;2023-04-24T12:40:17;11.13;;;3.25;;
56429;SDS011;42332;52.136;20.666;2023-04-24T12:42:43;10.48;;;2.85;;
56429;SDS011;42332;52.136;20.666;2023-04-24T12:45:10;9.73;;;2.95;;
56429;SDS011;42332;52.136;20.666;2023-04-24T12:47:37;11.13;;;2.63;;
56429;SDS011;42332;52.136;20.666;2023-04-24T12:50:03;7.20;;;2.50;;
56429;SDS011;42332;52.136;20.666;2023-04-24T12:52:29;19.25;;;3.53;;
56429;SDS011;42332;52.136;20.666;2023-04-24T12:54:56;6.07;;;3.00;;
56429;SDS011;42332;52.136;20.666;2023-04-24T12:57:24;11.77;;;2.33;;
56429;SDS011;42332;52.136;20.666;2023-04-24T12:59:50;12.80;;;2.65;;
56429;SDS011;42332;52.136;20.666;2023-04-24T13:02:15;15.10;;;2.92;;
56429;SDS011;42332;52.136;20.666;2023-04-24T13:04:44;12.13;;;3.60;;
56429;SDS011;42332;52.136;20.666;2023-04-24T13:07:11;12.30;;;3.25;;
56429;SDS011;42332;52.136;20.666;2023-04-24T13:09:37;10.93;;;3.22;;
56429;SDS011;42332;52.136;20.666;2023-04-24T13:12:03;10.18;;;3.00;;
56429;SDS011;42332;52.136;20.666;2023-04-24T13:14:30;19.33;;;3.22;;
56429;SDS011;42332;52.136;20.666;2023-04-24T13:16:56;12.70;;;2.80;;
56429;SDS011;42332;52.136;20.666;2023-04-24T13:19:21;7.65;;;3.08;;
56429;SDS011;42332;52.136;20.666;2023-04-24T13:21:49;8.32;;;2.60;;
56429;SDS011;42332;52.136;20.666;2023-04-24T13:24:14;16.90;;;3.45;;
56429;SDS011;42332;52.136;20.666;2023-04-24T13:26:40;6.00;;;3.00;;
56429;SDS011;42332;52.136;20.666;2023-04-24T13:29:06;9.13;;;3.13;;
56429;SDS011;42332;52.136;20.666;2023-04-24T13:31:31;9.30;;;2.72;;
56429;SDS011;42332;52.136;20.666;2023-04-24T13:33:56;10.82;;;2.60;;
56429;SDS011;42332;52.136;20.666;2023-04-24T13:36:22;7.45;;;2.92;;
56429;SDS011;42332;52.136;20.666;2023-04-24T13:38:47;5.50;;;2.70;;
56429;SDS011;42332;52.136;20.666;2023-04-24T13:41:13;7.18;;;2.97;;
56429;SDS011;42332;52.136;20.666;2023-04-24T13:43:38;6.72;;;2.90;;
56429;SDS011;42332;52.136;20.666;2023-04-24T13:46:03;8.68;;;3.20;;
56429;SDS011;42332;52.136;20.666;2023-04-24T13:48:29;13.70;;;3.85;;
56429;SDS011;42332;52.136;20.666;2023-04-24T13:50:55;10.48;;;3.10;;
56429;SDS011;42332;52.136;20.666;2023-04-24T13:53:20;6.45;;;3.53;;
56429;SDS011;42332;52.136;20.666;2023-04-24T13:55:46;7.30;;;3.38;;
56429;SDS011;42332;52.136;20.666;2023-04-24T13:58:11;10.32;;;3.17;;
56429;SDS011;42332;52.136;20.666;2023-04-24T14:00:37;9.52;;;2.97;;
56429;SDS011;42332;52.136;20.666;2023-04-24T14:03:02;5.32;;;2.50;;
56429;SDS011;42332;52.136;20.666;2023-04-24T14:05:27;5.65;;;2.28;;
56429;SDS011;42332;52.136;20.666;2023-04-24T14:07:53;6.43;;;2.67;;
56429;SDS011;42332;52.136;20.666;2023-04-24T14:10:18;5.70;;;2.20;;
56429;SDS011;42332;52.136;20.666;2023-04-24T14:12:44;6.30;;;2.60;;
56429;SDS011;42332;52.136;20.666;2023-04-24T14:15:09;8.48;;;3.00;;
56429;SDS011;42332;52.136;20.666;2023-04-24T14:17:35;5.90;;;2.47;;
56429;SDS011;42332;52.136;20.666;2023-04-24T14:20:00;5.80;;;2.70;;
56429;SDS011;42332;52.136;20.666;2023-04-24T14:22:26;10.93;;;2.97;;
56429;SDS011;42332;52.136;20.666;2023-04-24T14:24:52;10.32;;;3.45;;
56429;SDS011;42332;52.136;20.666;2023-04-24T14:27:17;6.60;;;2.90;;
56429;SDS011;42332;52.136;20.666;2023-04-24T14:29:42;5.90;;;2.90;;
56429;SDS011;42332;52.136;20.666;2023-04-24T14:32:09;10.13;;;2.85;;